createdAt,value
2018-05-26T00:02:25.615Z,10.47
2018-05-26T00:04:53.154Z,9.90
2018-05-26T00:07:20.730Z,9.70
2018-05-26T00:09:48.286Z,9.10
2018-05-26T00:12:15.863Z,9.57
2018-05-26T00:14:43.421Z,10.27
2018-05-26T00:17:10.994Z,9.23
2018-05-26T00:19:38.552Z,10.30
2018-05-26T00:22:06.125Z,9.30
2018-05-26T00:24:33.683Z,10.00
2018-05-26T00:27:01.278Z,10.63
2018-05-26T00:29:29.596Z,10.63
2018-05-26T00:31:57.173Z,10.13
2018-05-26T00:34:24.763Z,10.00
2018-05-26T00:36:52.303Z,8.87
2018-05-26T00:39:19.892Z,10.40
2018-05-26T00:41:47.436Z,10.90
2018-05-26T00:44:15.017Z,10.43
2018-05-26T00:46:43.334Z,11.63
2018-05-26T00:49:10.901Z,10.93
2018-05-26T00:51:38.438Z,9.97
2018-05-26T00:54:06.020Z,11.00
2018-05-26T00:56:33.581Z,11.83
2018-05-26T00:59:01.165Z,12.20
2018-05-26T01:01:28.721Z,11.53
2018-05-26T01:03:56.318Z,11.30
2018-05-26T01:06:24.656Z,10.50
2018-05-26T01:08:52.221Z,10.03
2018-05-26T01:11:19.764Z,10.87
2018-05-26T01:13:47.336Z,10.53
2018-05-26T01:16:14.885Z,11.33
2018-05-26T01:18:42.466Z,11.60
2018-05-26T01:21:10.032Z,12.00
2018-05-26T01:26:12.207Z,11.63
2018-05-26T01:28:39.797Z,10.67
2018-05-26T01:31:07.357Z,10.33
2018-05-26T01:33:35.715Z,10.13
2018-05-26T01:36:03.270Z,10.77
2018-05-26T01:38:30.864Z,11.10
2018-05-26T01:40:59.181Z,11.10
2018-05-26T01:43:26.754Z,10.73
2018-05-26T01:45:54.294Z,11.03
2018-05-26T01:48:21.864Z,11.60
2018-05-26T01:50:49.439Z,12.10
2018-05-26T01:53:17.025Z,12.33
2018-05-26T01:55:44.585Z,11.70
2018-05-26T01:58:12.156Z,11.77
2018-05-26T02:00:40.491Z,12.27
2018-05-26T02:03:08.073Z,11.93
2018-05-26T02:05:35.634Z,12.60
2018-05-26T02:08:03.223Z,12.90
2018-05-26T02:10:31.551Z,12.07
2018-05-26T02:12:59.140Z,12.87
2018-05-26T02:15:26.712Z,12.33
2018-05-26T02:17:54.277Z,11.17
2018-05-26T02:20:22.593Z,11.27
2018-05-26T02:22:50.157Z,12.10
2018-05-26T02:25:17.724Z,10.83
2018-05-26T02:27:45.297Z,11.43
2018-05-26T02:30:12.857Z,11.60
2018-05-26T02:32:40.432Z,11.97
2018-05-26T02:35:07.988Z,11.23
2018-05-26T02:37:35.581Z,10.50
2018-05-26T02:40:03.911Z,12.20
2018-05-26T02:42:31.481Z,10.53
2018-05-26T02:44:59.050Z,11.70
2018-05-26T02:47:26.597Z,11.87
2018-05-26T02:49:54.165Z,12.83
2018-05-26T02:52:21.725Z,12.00
2018-05-26T02:54:49.289Z,10.23
2018-05-26T02:57:16.844Z,12.40
2018-05-26T02:59:44.425Z,12.20
2018-05-26T03:02:11.980Z,11.63
2018-05-26T03:04:45.990Z,11.80
2018-05-26T03:07:19.180Z,14.13
2018-05-26T03:09:52.430Z,11.90
2018-05-26T03:12:25.690Z,12.27
2018-05-26T03:14:53.551Z,12.40
2018-05-26T03:17:21.873Z,11.10
2018-05-26T03:19:49.437Z,11.20
2018-05-26T03:22:16.992Z,12.03
2018-05-26T03:24:44.562Z,13.57
2018-05-26T03:27:12.112Z,13.67
2018-05-26T03:29:39.689Z,13.47
2018-05-26T03:32:07.236Z,13.47
2018-05-26T03:34:34.801Z,14.27
2018-05-26T03:37:02.355Z,12.20
2018-05-26T03:39:29.929Z,12.53
2018-05-26T03:41:57.478Z,13.40
2018-05-26T03:44:25.052Z,12.00
2018-05-26T03:46:52.631Z,12.80
2018-05-26T03:49:20.204Z,13.10
2018-05-26T03:51:47.754Z,12.30
2018-05-26T03:54:15.334Z,11.87
2018-05-26T03:56:55.631Z,12.80
2018-05-26T04:02:26.709Z,14.70
2018-05-26T04:04:54.305Z,14.57
2018-05-26T04:07:21.868Z,13.80
2018-05-26T04:09:50.211Z,14.07
2018-05-26T04:12:17.761Z,13.77
2018-05-26T04:14:45.338Z,13.73
2018-05-26T04:17:12.887Z,11.90
2018-05-26T04:19:40.446Z,11.40
2018-05-26T04:22:08.014Z,12.47
2018-05-26T04:24:36.358Z,12.93
2018-05-26T04:27:03.910Z,12.13
2018-05-26T04:29:31.485Z,11.90
2018-05-26T04:31:59.052Z,12.00
2018-05-26T04:34:26.628Z,12.43
2018-05-26T04:36:54.185Z,12.50
2018-05-26T04:39:21.761Z,13.40
2018-05-26T04:41:49.314Z,12.80
2018-05-26T04:44:16.897Z,11.47
2018-05-26T04:46:44.453Z,11.60
2018-05-26T04:49:12.058Z,11.90
2018-05-26T04:51:39.611Z,10.80
2018-05-26T04:54:07.203Z,10.87
2018-05-26T04:56:34.763Z,10.30
2018-05-26T04:59:02.345Z,9.73
2018-05-26T05:01:29.938Z,11.07
2018-05-26T05:03:58.282Z,12.23
2018-05-26T05:06:25.844Z,12.67
2018-05-26T05:08:53.414Z,10.80
2018-05-26T05:11:20.961Z,10.17
2018-05-26T05:13:48.529Z,9.50
2018-05-26T05:16:16.081Z,10.17
2018-05-26T05:18:44.421Z,10.50
2018-05-26T05:21:11.961Z,9.67
2018-05-26T05:23:40.324Z,11.10
2018-05-26T05:26:08.649Z,10.23
2018-05-26T05:28:36.201Z,11.20
2018-05-26T05:31:03.787Z,11.00
2018-05-26T05:33:31.333Z,11.83
2018-05-26T05:35:58.923Z,10.83
2018-05-26T05:38:26.506Z,10.37
2018-05-26T05:40:54.866Z,10.00
2018-05-26T05:43:22.419Z,11.10
2018-05-26T05:45:50.009Z,10.30
2018-05-26T05:48:18.318Z,9.00
2018-05-26T05:50:45.896Z,10.60
2018-05-26T05:53:13.446Z,10.13
2018-05-26T05:55:41.013Z,8.43
2018-05-26T05:58:08.549Z,8.67
2018-05-26T06:00:36.110Z,8.10
2018-05-26T06:03:03.656Z,8.20
2018-05-26T06:05:32.000Z,8.77
2018-05-26T06:07:59.542Z,8.00
2018-05-26T06:10:27.110Z,7.87
2018-05-26T06:12:54.689Z,8.23
2018-05-26T06:15:22.264Z,7.50
2018-05-26T06:17:50.593Z,7.57
2018-05-26T06:20:18.166Z,6.83
2018-05-26T06:22:45.706Z,8.53
2018-05-26T06:25:13.269Z,8.83
2018-05-26T06:27:40.811Z,8.47
2018-05-26T06:30:08.372Z,8.40
2018-05-26T06:54:17.184Z,9.10
2018-05-26T06:56:44.740Z,8.50
2018-05-26T06:59:12.318Z,8.27
2018-05-26T07:01:39.861Z,8.87
2018-05-26T07:04:07.421Z,7.90
2018-05-26T07:06:34.977Z,7.70
2018-05-26T07:09:02.514Z,7.83
2018-05-26T07:11:30.085Z,8.30
2018-05-26T07:13:57.637Z,8.60
2018-05-26T07:16:25.213Z,6.70
2018-05-26T07:18:52.763Z,7.00
2018-05-26T07:21:20.330Z,7.70
2018-05-26T07:23:48.638Z,7.27
2018-05-26T07:26:16.207Z,7.30
2018-05-26T07:28:44.522Z,8.10
2018-05-26T07:31:12.088Z,7.10
2018-05-26T07:33:39.666Z,7.50
2018-05-26T07:36:07.236Z,7.60
2018-05-26T07:38:34.778Z,7.70
2018-05-26T07:41:02.358Z,7.30
2018-05-26T07:43:29.901Z,7.23
2018-05-26T07:45:57.470Z,7.37
2018-05-26T07:48:24.994Z,7.23
2018-05-26T07:50:52.572Z,7.13
2018-05-26T07:53:20.113Z,7.30
2018-05-26T07:55:47.688Z,6.83
2018-05-26T07:58:15.226Z,6.93
2018-05-26T08:00:42.805Z,7.33
2018-05-26T08:03:10.341Z,6.90
2018-05-26T08:05:37.903Z,6.97
2018-05-26T08:08:05.455Z,6.70
2018-05-26T08:10:33.785Z,7.17
2018-05-26T08:13:01.337Z,6.20
2018-05-26T08:15:28.897Z,7.17
2018-05-26T08:17:56.430Z,6.90
2018-05-26T08:20:23.993Z,6.73
2018-05-26T08:22:51.528Z,6.40
2018-05-26T08:25:19.869Z,6.50
2018-05-26T08:27:47.412Z,6.43
2018-05-26T08:30:14.988Z,6.20
2018-05-26T08:32:42.551Z,7.00
2018-05-26T08:35:10.120Z,6.80
2018-05-26T08:37:37.676Z,6.53
2018-05-26T08:40:05.241Z,6.93
2018-05-26T08:42:32.781Z,6.80
2018-05-26T08:45:00.371Z,6.73
2018-05-26T08:47:27.925Z,6.07
2018-05-26T08:49:55.509Z,6.43
2018-05-26T08:52:23.807Z,6.90
2018-05-26T08:54:51.420Z,6.03
2018-05-26T08:57:18.936Z,5.77
2018-05-26T08:59:46.503Z,7.30
2018-05-26T09:02:14.096Z,6.57
2018-05-26T09:04:41.630Z,6.70
2018-05-26T09:07:09.175Z,6.40
2018-05-26T09:09:36.749Z,6.50
2018-05-26T09:12:04.278Z,6.70
2018-05-26T09:14:31.830Z,6.60
2018-05-26T09:17:00.153Z,6.03
2018-05-26T09:19:27.708Z,6.63
2018-05-26T09:21:55.321Z,5.83
2018-05-26T09:24:23.626Z,6.03
2018-05-26T09:26:51.216Z,6.40
2018-05-26T09:29:18.754Z,7.30
2018-05-26T09:31:46.315Z,6.30
2018-05-26T09:34:13.870Z,6.70
2018-05-26T09:36:41.458Z,7.40
2018-05-26T09:39:09.000Z,6.20
2018-05-26T09:41:36.571Z,6.90
2018-05-26T09:44:04.116Z,7.87
2018-05-26T09:46:31.694Z,6.60
2018-05-26T09:48:59.254Z,7.27
2018-05-26T09:51:26.830Z,6.33
2018-05-26T09:53:54.378Z,7.20
2018-05-26T09:56:21.981Z,7.10
2018-05-26T09:58:50.282Z,7.50
2018-05-26T10:01:17.859Z,6.90
2018-05-26T10:03:45.426Z,7.77
2018-05-26T10:06:12.985Z,6.93
2018-05-26T10:08:40.521Z,6.30
2018-05-26T10:11:08.099Z,6.47
2018-05-26T10:13:35.682Z,7.30
2018-05-26T10:16:03.236Z,6.37
2018-05-26T10:18:30.791Z,6.60
2018-05-26T10:20:58.349Z,7.20
2018-05-26T10:23:25.878Z,6.73
2018-05-26T10:25:53.460Z,7.20
2018-05-26T10:28:21.004Z,6.53
2018-05-26T10:30:48.580Z,7.10
2018-05-26T10:33:16.130Z,6.20
2018-05-26T10:35:43.721Z,6.00
2018-05-26T10:38:11.318Z,6.27
2018-05-26T10:40:38.857Z,5.30
2018-05-26T10:43:06.390Z,6.00
2018-05-26T10:45:39.844Z,5.30
2018-05-26T10:48:08.212Z,5.30
2018-05-26T10:50:35.744Z,5.77
2018-05-26T10:53:03.278Z,6.33
2018-05-26T10:55:30.845Z,5.60
2018-05-26T10:57:58.391Z,4.93
2018-05-26T11:00:25.973Z,6.10
2018-05-26T11:02:53.501Z,4.73
2018-05-26T11:05:21.062Z,5.20
2018-05-26T11:07:48.605Z,6.10
2018-05-26T11:10:16.197Z,5.50
2018-05-26T11:12:43.737Z,4.73
2018-05-26T11:15:11.394Z,4.43
2018-05-26T11:17:38.927Z,4.43
2018-05-26T11:20:06.479Z,4.60
2018-05-26T11:22:34.012Z,4.90
2018-05-26T11:25:01.561Z,5.10
2018-05-26T11:27:29.121Z,4.80
2018-05-26T11:29:57.447Z,4.37
2018-05-26T11:32:25.801Z,4.40
2018-05-26T11:34:53.342Z,5.17
2018-05-26T11:37:20.937Z,4.63
2018-05-26T11:39:48.489Z,5.27
2018-05-26T11:42:16.065Z,4.83
2018-05-26T11:44:44.373Z,5.70
2018-05-26T11:47:11.924Z,5.60
2018-05-26T11:49:39.465Z,4.80
2018-05-26T11:52:07.821Z,4.83
2018-05-26T11:54:35.345Z,5.17
2018-05-26T11:57:02.905Z,4.63
2018-05-26T11:59:30.441Z,4.40
2018-05-26T12:01:58.002Z,4.80
2018-05-26T12:04:25.548Z,4.70
2018-05-26T12:06:53.882Z,5.10
2018-05-26T12:09:21.422Z,4.70
2018-05-26T12:11:48.989Z,4.80
2018-05-26T12:14:16.521Z,4.50
2018-05-26T12:16:44.894Z,4.80
2018-05-26T12:19:12.433Z,4.60
2018-05-26T12:21:40.753Z,4.20
2018-05-26T12:24:08.298Z,4.87
2018-05-26T12:26:35.853Z,4.63
2018-05-26T12:29:03.418Z,5.23
2018-05-26T12:31:30.978Z,4.60
2018-05-26T12:33:58.562Z,4.47
2018-05-26T12:36:26.105Z,4.77
2018-05-26T12:38:53.650Z,4.17
2018-05-26T12:41:21.212Z,5.47
2018-05-26T12:43:48.750Z,4.60
2018-05-26T12:46:17.077Z,4.73
2018-05-26T12:48:44.609Z,4.50
2018-05-26T12:51:12.173Z,5.40
2018-05-26T12:53:39.723Z,5.03
2018-05-26T12:56:08.059Z,4.10
2018-05-26T12:58:35.628Z,5.13
2018-05-26T13:01:03.204Z,5.17
2018-05-26T13:03:31.509Z,4.30
2018-05-26T13:05:59.093Z,4.13
2018-05-26T13:08:26.625Z,4.43
2018-05-26T13:10:54.821Z,4.30
2018-05-26T13:13:22.373Z,4.80
2018-05-26T13:15:49.944Z,4.23
2018-05-26T13:18:17.482Z,5.10
2018-05-26T13:20:45.049Z,5.40
2018-05-26T13:23:12.593Z,5.03
2018-05-26T13:25:40.160Z,4.60
2018-05-26T13:28:07.710Z,5.00
2018-05-26T13:30:36.050Z,5.73
2018-05-26T13:33:03.578Z,5.07
2018-05-26T13:35:31.134Z,5.10
2018-05-26T13:37:58.729Z,5.70
2018-05-26T13:40:26.276Z,4.27
2018-05-26T13:42:53.856Z,5.17
2018-05-26T13:45:21.405Z,5.67
2018-05-26T13:47:48.969Z,5.47
2018-05-26T13:50:16.499Z,5.20
2018-05-26T13:52:44.058Z,4.60
2018-05-26T13:55:11.619Z,4.60
2018-05-26T13:57:39.197Z,4.90
2018-05-26T14:00:06.744Z,5.27
2018-05-26T14:02:34.300Z,5.23
2018-05-26T14:05:01.850Z,4.90
2018-05-26T14:07:29.421Z,4.50
2018-05-26T14:09:56.969Z,4.77
2018-05-26T14:12:24.546Z,4.90
2018-05-26T14:14:52.084Z,4.60
2018-05-26T14:17:19.660Z,4.37
2018-05-26T14:19:47.199Z,5.40
2018-05-26T14:22:14.785Z,4.80
2018-05-26T14:24:42.322Z,5.27
2018-05-26T14:27:09.889Z,4.60
2018-05-26T14:29:37.450Z,4.50
2018-05-26T14:32:05.021Z,4.57
2018-05-26T14:34:32.585Z,4.57
2018-05-26T14:37:00.155Z,4.93
2018-05-26T14:39:27.703Z,4.37
2018-05-26T14:41:55.274Z,4.63
2018-05-26T14:44:22.825Z,5.70
2018-05-26T14:46:50.401Z,5.30
2018-05-26T14:49:17.954Z,5.07
2018-05-26T14:51:45.538Z,4.73
2018-05-26T14:54:13.074Z,4.80
2018-05-26T14:56:40.630Z,5.43
2018-05-26T14:59:08.160Z,5.13
2018-05-26T15:01:35.728Z,5.30
2018-05-26T15:04:03.273Z,4.90
2018-05-26T15:06:30.848Z,5.00
2018-05-26T15:08:58.381Z,5.00
2018-05-26T15:11:26.712Z,5.53
2018-05-26T15:13:54.242Z,5.53
2018-05-26T15:16:21.801Z,5.10
2018-05-26T15:18:49.339Z,4.83
2018-05-26T15:21:17.657Z,4.70
2018-05-26T15:23:45.206Z,4.60
2018-05-26T15:26:13.592Z,4.20
2018-05-26T15:28:41.127Z,4.73
2018-05-26T15:31:08.661Z,5.37
2018-05-26T15:33:36.999Z,4.60
2018-05-26T15:36:04.537Z,4.90
2018-05-26T15:38:32.104Z,4.80
2018-05-26T15:40:59.645Z,4.47
2018-05-26T15:43:27.218Z,4.23
2018-05-26T15:45:54.756Z,4.00
2018-05-26T15:48:23.085Z,3.90
2018-05-26T15:50:50.628Z,4.30
2018-05-26T15:53:18.193Z,4.30
2018-05-26T15:55:45.734Z,4.53
2018-05-26T15:58:13.312Z,5.00
2018-05-26T16:00:40.858Z,4.83
2018-05-26T16:03:08.431Z,4.03
2018-05-26T16:05:35.975Z,4.63
2018-05-26T16:08:03.547Z,4.33
2018-05-26T16:10:31.108Z,4.03
2018-05-26T16:12:58.677Z,4.57
2018-05-26T16:15:26.219Z,4.10
2018-05-26T16:17:53.789Z,4.70
2018-05-26T16:20:21.350Z,4.37
2018-05-26T16:22:48.927Z,4.40
2018-05-26T16:25:16.476Z,3.90
2018-05-26T16:27:44.056Z,4.40
2018-05-26T16:30:11.594Z,4.43
2018-05-26T16:32:39.162Z,4.80
2018-05-26T16:35:06.706Z,4.13
2018-05-26T16:37:34.285Z,4.80
2018-05-26T16:40:01.841Z,4.17
2018-05-26T16:42:29.401Z,4.43
2018-05-26T16:44:56.957Z,4.77
2018-05-26T16:47:24.535Z,3.83
2018-05-26T16:49:52.096Z,4.67
2018-05-26T16:52:19.690Z,4.00
2018-05-26T16:54:47.990Z,4.87
2018-05-26T16:57:15.561Z,4.00
2018-05-26T16:59:43.126Z,4.33
2018-05-26T17:02:10.694Z,4.57
2018-05-26T17:04:38.251Z,4.87
2018-05-26T17:09:39.831Z,4.00
2018-05-26T17:12:07.402Z,3.80
2018-05-26T17:14:34.954Z,3.80
2018-05-26T17:17:02.517Z,5.20
2018-05-26T17:19:30.053Z,4.67
2018-05-26T17:21:57.649Z,5.20
2018-05-26T17:24:25.202Z,4.23
2018-05-26T17:26:52.777Z,3.90
2018-05-26T17:29:20.326Z,4.77
2018-05-26T17:31:47.897Z,4.40
2018-05-26T17:34:15.685Z,4.30
2018-05-26T17:36:43.265Z,4.30
2018-05-26T17:39:10.826Z,4.90
2018-05-26T17:41:38.392Z,5.77
2018-05-26T17:44:05.989Z,5.50
2018-05-26T17:46:33.538Z,4.50
2018-05-26T17:49:01.119Z,6.07
2018-05-26T17:51:28.681Z,5.63
2018-05-26T17:53:56.265Z,5.73
2018-05-26T17:56:24.592Z,5.20
2018-05-26T17:58:52.165Z,5.13
2018-05-26T18:01:19.728Z,6.00
2018-05-26T18:03:47.313Z,5.87
2018-05-26T18:06:15.659Z,6.00
2018-05-26T18:08:43.244Z,6.60
2018-05-26T18:11:10.798Z,5.47
2018-05-26T18:13:38.394Z,5.10
2018-05-26T18:16:06.702Z,5.87
2018-05-26T18:18:34.308Z,5.23
2018-05-26T18:21:02.640Z,5.23
2018-05-26T18:23:30.232Z,6.47
2018-05-26T18:25:57.796Z,6.30
2018-05-26T18:28:26.129Z,6.47
2018-05-26T18:30:53.665Z,6.40
2018-05-26T18:33:22.009Z,6.00
2018-05-26T18:35:49.557Z,8.40
2018-05-26T18:38:17.121Z,8.97
2018-05-26T18:40:44.665Z,6.53
2018-05-26T18:43:12.237Z,5.40
2018-05-26T18:45:39.784Z,6.83
2018-05-26T18:48:07.355Z,5.10
2018-05-26T18:50:34.918Z,6.40
2018-05-26T18:53:02.502Z,6.60
2018-05-26T18:55:30.055Z,6.00
2018-05-26T18:57:57.633Z,5.67
2018-05-26T19:00:25.966Z,7.13
2018-05-26T19:02:53.539Z,5.50
2018-05-26T19:05:21.099Z,7.00
2018-05-26T19:07:48.669Z,7.87
2018-05-26T19:10:16.222Z,5.30
2018-05-26T19:12:44.708Z,8.67
2018-05-26T19:15:12.278Z,7.10
2018-05-26T19:17:39.877Z,6.60
2018-05-26T19:20:07.416Z,8.20
2018-05-26T19:22:35.753Z,7.47
2018-05-26T19:25:03.311Z,7.40
2018-05-26T19:27:30.877Z,8.80
2018-05-26T19:29:58.418Z,7.70
2018-05-26T19:32:25.979Z,7.40
2018-05-26T19:34:53.546Z,8.57
2018-05-26T19:37:21.137Z,7.67
2018-05-26T19:39:49.489Z,6.83
2018-05-26T19:42:17.046Z,8.37
2018-05-26T19:44:44.612Z,7.80
2018-05-26T19:47:12.194Z,7.30
2018-05-26T19:49:40.541Z,8.37
2018-05-26T19:52:08.164Z,7.23
2018-05-26T19:54:35.788Z,8.10
2018-05-26T19:57:03.365Z,10.00
2018-05-26T19:59:31.724Z,6.90
2018-05-26T20:01:59.299Z,7.60
2018-05-26T20:04:26.921Z,9.23
2018-05-26T20:06:54.503Z,6.30
2018-05-26T20:09:22.113Z,8.13
2018-05-26T20:11:49.672Z,9.23
2018-05-26T20:14:17.304Z,7.40
2018-05-26T20:16:44.898Z,9.83
2018-05-26T20:19:12.492Z,9.90
2018-05-26T20:21:40.069Z,7.10
2018-05-26T20:24:07.661Z,7.40
2018-05-26T20:26:35.976Z,8.93
2018-05-26T20:29:03.569Z,6.80
2018-05-26T20:31:31.120Z,8.30
2018-05-26T20:33:58.696Z,8.00
2018-05-26T20:36:26.236Z,7.00
2018-05-26T20:38:53.875Z,9.87
2018-05-26T20:41:21.422Z,8.87
2018-05-26T20:43:48.998Z,7.30
2018-05-26T20:46:16.581Z,9.20
2018-05-26T20:48:44.192Z,8.47
2018-05-26T20:51:11.781Z,6.53
2018-05-26T20:53:39.377Z,9.60
2018-05-26T20:56:06.945Z,7.90
2018-05-26T20:58:34.550Z,7.30
2018-05-26T21:01:02.108Z,9.33
2018-05-26T21:03:29.677Z,8.13
2018-05-26T21:05:57.231Z,7.47
2018-05-26T21:08:24.799Z,9.47
2018-05-26T21:10:52.375Z,9.23
2018-05-26T21:13:20.745Z,8.87
2018-05-26T21:15:48.316Z,10.80
2018-05-26T21:18:15.886Z,8.13
2018-05-26T21:20:44.208Z,8.77
2018-05-26T21:23:12.553Z,9.23
2018-05-26T21:25:40.115Z,7.30
2018-05-26T21:28:07.742Z,7.03
2018-05-26T21:30:35.282Z,9.47
2018-05-26T21:33:02.858Z,6.73
2018-05-26T21:35:31.175Z,9.03
2018-05-26T21:37:58.752Z,9.80
2018-05-26T21:40:27.075Z,6.87
2018-05-26T21:42:54.668Z,9.10
2018-05-26T21:45:22.218Z,9.43
2018-05-26T21:47:50.561Z,7.20
2018-05-26T21:50:18.165Z,7.23
2018-05-26T21:52:45.732Z,6.07
2018-05-26T21:55:13.270Z,7.10
2018-05-26T21:57:40.840Z,7.63
2018-05-26T22:00:08.384Z,6.63
2018-05-26T22:02:35.933Z,7.00
2018-05-26T22:05:03.506Z,6.93
2018-05-26T22:07:31.071Z,6.93
2018-05-26T22:09:58.646Z,6.73
2018-05-26T22:12:26.185Z,6.50
2018-05-26T22:14:53.750Z,7.30
2018-05-26T22:17:21.277Z,7.83
2018-05-26T22:19:48.857Z,7.30
2018-05-26T22:22:16.401Z,8.40
2018-05-26T22:24:43.989Z,11.10
2018-05-26T22:27:11.525Z,9.73
2018-05-26T22:29:39.092Z,9.30
2018-05-26T22:32:06.635Z,7.37
2018-05-26T22:34:34.192Z,7.20
2018-05-26T22:37:01.729Z,7.13
2018-05-26T22:39:30.059Z,7.80
2018-05-26T22:41:57.600Z,7.50
2018-05-26T22:44:25.179Z,9.27
2018-05-26T22:46:52.738Z,8.30
2018-05-26T22:49:20.300Z,8.37
2018-05-26T22:51:47.846Z,11.23
2018-05-26T22:54:15.417Z,12.90
2018-05-26T22:56:42.956Z,9.83
2018-05-26T22:59:10.531Z,9.80
2018-05-26T23:01:38.077Z,7.30
2018-05-26T23:04:05.648Z,6.47
2018-05-26T23:06:33.249Z,7.03
2018-05-26T23:09:00.811Z,6.97
2018-05-26T23:11:28.372Z,7.23
2018-05-26T23:13:55.939Z,7.47
2018-05-26T23:16:23.498Z,7.40
2018-05-26T23:18:51.067Z,7.37
2018-05-26T23:21:19.415Z,6.43
2018-05-26T23:23:46.982Z,7.90
2018-05-26T23:26:14.561Z,7.00
2018-05-26T23:28:42.160Z,7.47
2018-05-26T23:31:09.734Z,6.63
2018-05-26T23:33:37.313Z,7.10
2018-05-26T23:36:04.862Z,7.83
2018-05-26T23:38:32.433Z,6.90
2018-05-26T23:40:59.989Z,7.30
2018-05-26T23:43:27.557Z,7.40
2018-05-26T23:45:55.113Z,7.70
2018-05-26T23:48:22.677Z,7.37
2018-05-26T23:50:50.216Z,7.20
2018-05-26T23:53:17.789Z,7.53
2018-05-26T23:55:45.359Z,7.70
2018-05-26T23:58:12.928Z,7.80
